ミラノ/マルペンサ の空港の天気 - METARとTAF

ミラノ・マルペンサ国際空港 ( LIMC / MXP ) - イタリア ミラノ
飛行場実況気象(Metar)
観測時間08/14 06:50 CEST (08/14 04:50 UTC)
風向・風速北東 2m/s
視程10km以上
天気現象
全天の4割程度の雲 雲底高度 2130m
気温21℃
湿度88%
気圧1013hPa
METARLIMC 140450Z 04004KT 9999 SCT070 21/19 Q1013 NOSIG
過去の天気等 Google飛行場航空写真 Wunderground天気予報

過去48時間のMETAR

飛行場予報(TAF)
発表時間: 8/14 01:00 CEST (8/13 23:00 UTC)
予報対象時間: 14日2時 CEST ~ 15日8時 CEST
風向・風速不定 3m/s
視程10km以上
全天の4割程度の雲 雲底高度 1220m
14日2時 CEST ~ 14日5時 CEST に 確率 40% で一時的に
天気現象しゅう雨
14日11時 CEST ~ 14日17時 CEST に一時的に
視程4000m
天気現象雷雨
TAF LIMC 132300Z 1400/1506 VRB05KT 9999 SCT040
PROB40 TEMPO 1400/1403 SHRA
TEMPO 1409/1415 4000 TSRA